Time;durP1;ratioP1;P1;durP2;ratioP2;P2;SDS_P1;SDS_P2;PMS_P1;PMS_P2;Temp;Humidity;BMP_temperature;BMP_pressure;BME280_temperature;BME280_humidity;BME280_pressure;Samples;Min_cycle;Max_cycle;Signal;HPM_P1;HPM_P2
2022/01/30 00:00:15;;;;;;;4.67;3.00;;;;;;;-1.69;100.00;98857.67;1537095;92;21149;-67
2022/01/30 00:02:42;;;;;;;6.83;3.37;;;;;;;-1.70;100.00;98849.84;1537496;93;21101;-67
2022/01/30 00:05:09;;;;;;;9.43;3.67;;;;;;;-1.73;100.00;98856.25;1537710;93;21581;-67
2022/01/30 00:07:36;;;;;;;5.33;3.17;;;;;;;-1.73;100.00;98852.27;1537620;93;21081;-68
2022/01/30 00:10:07;;;;;;;5.57;3.10;;;;;;;-1.75;100.00;98841.79;1517586;93;21157;-69
2022/01/30 00:15:06;;;;;;;5.70;3.40;;;;;;;-1.74;100.00;98841.30;1510125;95;21075;-67
2022/01/30 00:17:40;;;;;;;8.13;3.90;;;;;;;-1.75;100.00;98840.46;1510127;95;21153;-68
2022/01/30 00:20:11;;;;;;;8.47;3.83;;;;;;;-1.77;100.00;98843.72;1510485;95;21120;-68
2022/01/30 00:25:16;;;;;;;7.87;3.70;;;;;;;-1.80;100.00;98830.70;1540327;93;21077;-68
2022/01/30 00:27:49;;;;;;;7.87;4.05;;;;;;;-1.82;100.00;98828.67;1540528;93;21054;-67
2022/01/30 00:30:15;;;;;;;12.87;4.60;;;;;;;-1.82;100.00;98826.02;1540111;93;21555;-67
2022/01/30 00:32:41;;;;;;;6.43;3.80;;;;;;;-1.82;100.00;98827.34;1542521;90;21546;-68
2022/01/30 00:35:09;;;;;;;7.10;3.77;;;;;;;-1.81;100.00;98822.88;1586920;89;21056;-68
2022/01/30 00:37:41;;;;;;;9.80;4.10;;;;;;;-1.82;100.00;98822.53;1567091;90;21587;-67
2022/01/30 00:40:10;;;;;;;8.67;4.37;;;;;;;-1.86;100.00;98822.40;1566393;92;21054;-67
2022/01/30 00:42:37;;;;;;;8.40;4.00;;;;;;;-1.86;100.00;98818.42;1546163;92;21158;-68
2022/01/30 00:45:06;;;;;;;10.43;4.60;;;;;;;-1.84;100.00;98816.48;1566076;92;21126;-68
2022/01/30 00:47:33;;;;;;;11.70;4.33;;;;;;;-1.84;100.00;98815.16;1566132;92;21086;-67
2022/01/30 00:50:00;;;;;;;8.90;4.90;;;;;;;-1.88;100.00;98813.23;1566077;92;21074;-68
2022/01/30 00:52:27;;;;;;;15.93;5.83;;;;;;;-1.94;100.00;98815.06;1590217;88;21577;-67
2022/01/30 00:54:54;;;;;;;18.10;5.57;;;;;;;-1.95;100.00;98822.19;1587207;89;21033;-67
2022/01/30 00:57:21;;;;;;;12.37;5.10;;;;;;;-1.96;100.00;98820.97;1572958;90;21077;-67
2022/01/30 00:59:49;;;;;;;9.27;4.07;;;;;;;-1.95;100.00;98823.97;1566002;92;21149;-67
2022/01/30 01:02:18;;;;;;;11.50;4.50;;;;;;;-1.97;100.00;98820.11;1593595;90;21042;-68
2022/01/30 01:04:45;;;;;;;11.23;4.17;;;;;;;-1.99;100.00;98820.72;1564854;91;21066;-67
2022/01/30 01:07:18;;;;;;;8.13;3.60;;;;;;;-1.98;100.00;98827.72;1564149;92;21038;-67
2022/01/30 01:09:43;;;;;;;7.60;3.80;;;;;;;-1.98;100.00;98821.09;1560604;92;21081;-67
2022/01/30 01:25:24;;;;;;;11.17;5.13;;;;;;;-2.01;100.00;98845.17;1665393;86;21121;-67
2022/01/30 01:27:51;;;;;;;14.07;5.17;;;;;;;-2.01;100.00;98845.17;1665551;86;21597;-68
2022/01/30 01:30:18;;;;;;;17.03;5.93;;;;;;;-2.04;100.00;98850.70;1665520;86;21057;-67
2022/01/30 01:32:46;;;;;;;12.33;4.90;;;;;;;-2.08;100.00;98845.78;1665624;86;21595;-68
2022/01/30 01:35:14;;;;;;;12.10;5.60;;;;;;;-2.10;100.00;98845.41;1665315;86;21062;-69
2022/01/30 01:37:42;;;;;;;11.87;5.47;;;;;;;-2.10;100.00;98840.11;1627678;86;21668;-66
2022/01/30 01:40:11;;;;;;;11.07;5.17;;;;;;;-2.11;100.00;98833.14;1627739;88;21113;-68
2022/01/30 01:42:38;;;;;;;14.47;5.30;;;;;;;-2.08;100.00;98820.61;1627652;88;21026;-68
2022/01/30 01:45:07;;;;;;;12.50;5.40;;;;;;;-2.12;100.00;98825.31;1627920;88;21106;-67
2022/01/30 01:47:36;;;;;;;12.73;5.33;;;;;;;-2.16;100.00;98833.98;1606566;88;21095;-68
2022/01/30 01:50:04;;;;;;;9.90;5.20;;;;;;;-2.16;100.00;98827.36;1627746;88;21055;-68
2022/01/30 01:52:32;;;;;;;9.10;4.67;;;;;;;-2.18;100.00;98831.08;1642754;86;22393;-68
2022/01/30 01:54:59;;;;;;;12.53;5.27;;;;;;;-2.21;100.00;98825.55;1636751;86;21152;-68
2022/01/30 01:57:28;;;;;;;11.80;5.23;;;;;;;-2.23;100.00;98827.48;1636105;86;21016;-68
2022/01/30 02:00:08;;;;;;;13.00;5.20;;;;;;;-2.24;100.00;98825.78;1656246;86;21576;-67
2022/01/30 02:02:41;;;;;;;10.60;5.30;;;;;;;-2.26;100.00;98825.06;1644949;86;21056;-67
2022/01/30 02:05:09;;;;;;;9.03;4.20;;;;;;;-2.30;100.00;98824.45;1638160;87;21073;-68
2022/01/30 02:08:10;;;;;;;10.37;4.83;;;;;;;-2.28;100.00;98824.34;1678657;85;21006;-68
2022/01/30 02:10:19;;;;;;;10.10;4.47;;;;;;;-2.29;100.00;98827.45;1638586;88;21015;-68
2022/01/30 02:12:49;;;;;;;10.67;4.43;;;;;;;-2.30;100.00;98823.14;1607511;89;21030;-67
2022/01/30 02:26:08;;;;;;;6.83;3.93;;;;;;;-2.35;100.00;98833.23;1658725;86;21491;-68
2022/01/30 02:28:36;;;;;;;7.57;3.50;;;;;;;-2.37;100.00;98833.01;1668345;86;21065;-67
2022/01/30 02:31:09;;;;;;;8.17;3.80;;;;;;;-2.41;100.00;98831.53;1668261;86;21037;-68
2022/01/30 02:33:33;;;;;;;5.90;3.80;;;;;;;-2.44;100.00;98836.60;1666852;86;21136;-67
2022/01/30 02:36:00;;;;;;;5.73;3.30;;;;;;;-2.47;100.00;98838.16;1667085;86;21563;-67
2022/01/30 02:38:27;;;;;;;5.60;3.57;;;;;;;-2.47;100.00;98842.13;1664034;86;21034;-68
2022/01/30 02:40:56;;;;;;;6.83;3.47;;;;;;;-2.46;100.00;98838.53;1664225;86;21014;-68
2022/01/30 02:43:29;;;;;;;7.53;4.00;;;;;;;-2.47;100.00;98843.94;1638950;87;21054;-68
2022/01/30 02:51:13;;;;;;;5.73;3.43;;;;;;;-2.47;100.00;98844.77;1528052;93;21630;-68
2022/01/30 02:53:43;;;;;;;7.60;3.53;;;;;;;-2.51;100.00;98849.45;1524703;93;21134;-68
2022/01/30 02:56:08;;;;;;;6.03;3.40;;;;;;;-2.52;100.00;98849.57;1570349;90;21043;-68
2022/01/30 02:58:35;;;;;;;6.20;3.27;;;;;;;-2.57;100.00;98844.61;1570888;91;21528;-68
2022/01/30 03:01:03;;;;;;;8.40;3.37;;;;;;;-2.59;100.00;98854.97;1560481;91;21123;-68
2022/01/30 03:03:30;;;;;;;6.73;3.00;;;;;;;-2.60;100.00;98859.42;1570818;91;21162;-67
2022/01/30 03:05:57;;;;;;;4.30;3.20;;;;;;;-2.60;100.00;98867.83;1560244;91;21079;-67
2022/01/30 03:08:24;;;;;;;6.73;3.80;;;;;;;-2.59;100.00;98863.74;1570797;91;21564;-67
2022/01/30 03:10:51;;;;;;;10.17;4.60;;;;;;;-2.59;100.00;98874.82;1560289;91;21056;-67
2022/01/30 03:13:18;;;;;;;8.03;4.63;;;;;;;-2.60;100.00;98877.95;1558981;91;21568;-68
2022/01/30 03:15:45;;;;;;;9.77;5.17;;;;;;;-2.63;100.00;98878.18;1537970;92;21090;-67
2022/01/30 03:18:12;;;;;;;9.67;4.93;;;;;;;-2.60;100.00;98887.22;1557881;92;21165;-67
2022/01/30 03:20:41;;;;;;;9.80;5.53;;;;;;;-2.60;100.00;98887.67;1558027;92;21022;-68
2022/01/30 03:23:10;;;;;;;12.03;6.33;;;;;;;-2.63;100.00;98899.35;1557973;92;21553;-68
2022/01/30 03:25:37;;;;;;;14.00;6.50;;;;;;;-2.62;100.00;98907.67;1538822;92;21098;-68
2022/01/30 03:28:07;;;;;;;13.03;6.90;;;;;;;-2.61;100.00;98907.17;1532992;90;21092;-68
2022/01/30 03:30:37;;;;;;;15.20;7.60;;;;;;;-2.61;100.00;98908.50;1598831;90;21012;-67
2022/01/30 03:33:09;;;;;;;13.77;7.13;;;;;;;-2.60;100.00;98918.11;1593849;90;21087;-69
2022/01/30 03:35:36;;;;;;;14.13;7.23;;;;;;;-2.61;100.00;98932.33;1598443;90;21079;-69
2022/01/30 03:38:03;;;;;;;14.43;6.97;;;;;;;-2.63;100.00;98932.43;1595658;88;21579;-67
2022/01/30 03:40:31;;;;;;;11.47;6.47;;;;;;;-2.64;100.00;98929.89;1595837;90;21050;-68
2022/01/30 03:42:59;;;;;;;14.20;7.30;;;;;;;-2.62;100.00;98943.85;1574573;90;21041;-67
2022/01/30 03:45:26;;;;;;;14.80;6.43;;;;;;;-2.61;100.00;98949.52;1595258;89;21535;-67
2022/01/30 03:47:55;;;;;;;13.80;6.90;;;;;;;-2.61;100.00;98960.11;1606177;89;21092;-67
2022/01/30 03:50:24;;;;;;;11.93;6.73;;;;;;;-2.61;100.00;98966.73;1611068;89;21573;-67
2022/01/30 03:52:51;;;;;;;12.63;6.23;;;;;;;-2.60;100.00;98973.69;1611587;88;21148;-67
2022/01/30 03:55:19;;;;;;;13.47;6.50;;;;;;;-2.61;100.00;98980.80;1611083;88;21094;-68
2022/01/30 03:57:46;;;;;;;13.90;6.37;;;;;;;-2.60;100.00;98989.12;1610984;88;21074;-68
2022/01/30 04:00:14;;;;;;;13.10;6.10;;;;;;;-2.59;100.00;98994.75;1611033;89;21060;-67
2022/01/30 04:02:46;;;;;;;12.97;6.40;;;;;;;-2.58;100.00;99004.89;1610998;89;21050;-67
2022/01/30 04:05:14;;;;;;;12.63;6.40;;;;;;;-2.58;100.00;99005.72;1610796;88;21069;-67
2022/01/30 04:07:47;;;;;;;13.20;5.87;;;;;;;-2.59;100.00;99002.70;1612407;88;21053;-68
2022/01/30 04:10:16;;;;;;;11.10;5.10;;;;;;;-2.59;100.00;99008.48;1608771;89;21578;-68
2022/01/30 04:12:48;;;;;;;9.08;4.60;;;;;;;-2.63;100.00;99009.19;1565123;90;21588;-68
2022/01/30 04:15:37;;;;;;;7.87;4.63;;;;;;;-2.62;100.00;99013.98;1540383;93;21102;-67
2022/01/30 04:18:06;;;;;;;6.23;4.40;;;;;;;-2.62;100.00;99016.64;1537791;93;21118;-67
2022/01/30 04:20:42;;;;;;;8.30;4.43;;;;;;;-2.62;100.00;99012.66;1525933;93;21082;-67
2022/01/30 04:23:12;;;;;;;12.67;4.70;;;;;;;-2.62;100.00;99017.95;1540670;93;21119;-68
2022/01/30 04:25:56;;;;;;;8.97;5.00;;;;;;;-2.62;100.00;99024.58;1537932;93;21083;-67
2022/01/30 04:28:43;;;;;;;8.80;4.60;;;;;;;-2.63;100.00;99025.55;1540464;91;21117;-68
2022/01/30 04:31:13;;;;;;;9.27;4.90;;;;;;;-2.65;100.00;99028.30;1527924;93;21549;-69
2022/01/30 04:33:52;;;;;;;9.87;4.37;;;;;;;-2.65;100.00;99034.92;1514327;95;21136;-68
2022/01/30 04:36:44;;;;;;;5.77;3.83;;;;;;;-2.65;100.00;99028.80;1517847;93;21132;-68
2022/01/30 04:53:53;;;;;;;5.47;3.77;;;;;;;-2.73;100.00;99025.36;1460455;97;21149;-68
2022/01/30 05:04:45;;;;;;;6.23;3.93;;;;;;;-2.83;100.00;99025.66;1431517;100;21619;-70
2022/01/30 05:09:54;;;;;;;8.83;4.47;;;;;;;-2.92;100.00;99012.61;1435939;98;21194;-70
2022/01/30 05:16:07;;;;;;;6.97;3.65;;;;;;;-3.01;100.00;99005.34;1383465;104;21591;-68
2022/01/30 05:19:23;;;;;;;7.77;4.50;;;;;;;-3.08;100.00;99015.06;1387972;103;21272;-69
2022/01/30 05:21:58;;;;;;;7.93;4.50;;;;;;;-3.16;100.00;99013.42;1410981;101;21197;-70
2022/01/30 05:24:34;;;;;;;10.03;4.20;;;;;;;-3.23;100.00;99010.85;1412815;99;21197;-68
2022/01/30 05:27:12;;;;;;;9.50;4.37;;;;;;;-3.30;100.00;98999.02;1406586;101;21149;-70
2022/01/30 05:29:42;;;;;;;6.77;4.23;;;;;;;-3.35;100.00;98986.61;1406948;102;21678;-68
2022/01/30 05:32:15;;;;;;;10.98;5.08;;;;;;;-3.38;100.00;98982.39;1406737;102;21224;-70
2022/01/30 05:34:45;;;;;;;8.13;4.47;;;;;;;-3.41;100.00;98974.67;1422964;100;21148;-70
2022/01/30 05:37:23;;;;;;;7.30;4.10;;;;;;;-3.48;100.00;98965.00;1384915;102;21263;-71
2022/01/30 05:40:10;;;;;;;7.90;4.03;;;;;;;-3.53;100.00;98966.28;1350595;105;21161;-69
2022/01/30 05:42:56;;;;;;;7.20;4.00;;;;;;;-3.58;100.00;98963.95;1344886;106;21145;-69
2022/01/30 05:45:45;;;;;;;7.80;4.23;;;;;;;-3.62;100.00;98954.56;1345083;106;21730;-70
2022/01/30 05:48:16;;;;;;;8.13;4.57;;;;;;;-3.69;100.00;98946.70;1344799;107;21748;-70
2022/01/30 05:50:55;;;;;;;10.60;4.80;;;;;;;-3.74;100.00;98948.81;1349639;105;21178;-69
2022/01/30 05:53:28;;;;;;;12.47;5.65;;;;;;;-3.72;100.00;98949.09;1336173;106;21172;-71
2022/01/30 05:56:04;;;;;;;8.43;4.93;;;;;;;-3.58;100.00;98944.14;1378359;103;21214;-70
2022/01/30 05:58:31;;;;;;;11.10;5.30;;;;;;;-3.51;100.00;98937.95;1413262;99;21166;-71
2022/01/30 06:01:03;;;;;;;13.77;5.60;;;;;;;-3.45;100.00;98934.88;1429964;100;21111;-70
2022/01/30 06:03:30;;;;;;;11.13;5.47;;;;;;;-3.44;100.00;98929.46;1424862;100;21731;-70
2022/01/30 06:05:58;;;;;;;13.23;5.70;;;;;;;-3.50;100.00;98936.52;1424774;101;21108;-70
2022/01/30 06:08:41;;;;;;;10.80;5.63;;;;;;;-3.57;100.00;98927.34;1424933;101;21626;-70
2022/01/30 06:10:57;;;;;;;13.40;6.10;;;;;;;-3.68;100.00;98925.46;1426327;98;21189;-70
2022/01/30 06:13:25;;;;;;;12.40;6.07;;;;;;;-3.77;100.00;98919.52;1459838;97;21138;-70
2022/01/30 06:15:52;;;;;;;11.77;5.67;;;;;;;-3.86;100.00;98922.77;1459864;98;21167;-70
2022/01/30 06:18:19;;;;;;;12.53;5.93;;;;;;;-3.93;100.00;98920.19;1459486;98;21118;-69
2022/01/30 06:21:07;;;;;;;11.70;5.80;;;;;;;-3.98;100.00;98909.97;1459637;98;21114;-70
2022/01/30 06:23:53;;;;;;;10.73;5.13;;;;;;;-4.00;100.00;98907.91;1477658;96;21099;-69
2022/01/30 06:26:38;;;;;;;11.77;5.63;;;;;;;-4.02;100.00;98896.58;1489577;96;21581;-70
2022/01/30 06:29:17;;;;;;;12.27;5.33;;;;;;;-4.02;100.00;98896.13;1489656;96;21092;-69
2022/01/30 06:32:04;;;;;;;11.23;5.50;;;;;;;-4.03;100.00;98897.55;1537116;92;21081;-69
2022/01/30 06:34:50;;;;;;;12.07;5.77;;;;;;;-4.03;100.00;98894.43;1578676;91;21556;-69
2022/01/30 06:40:07;;;;;;;14.27;5.60;;;;;;;-3.96;100.00;98875.05;1614687;88;21112;-69
2022/01/30 06:42:39;;;;;;;9.67;5.07;;;;;;;-3.89;100.00;98864.42;1591662;89;21057;-69
2022/01/30 06:45:32;;;;;;;11.97;5.23;;;;;;;-3.82;100.00;98855.59;1614758;88;21076;-68
2022/01/30 06:48:19;;;;;;;9.37;4.87;;;;;;;-3.76;100.00;98852.98;1614792;88;21557;-69
2022/01/30 06:51:07;;;;;;;12.23;5.63;;;;;;;-3.65;100.00;98835.42;1615441;88;21112;-69
2022/01/30 06:53:53;;;;;;;10.63;5.40;;;;;;;-3.54;100.00;98839.05;1614943;88;21045;-69
2022/01/30 06:56:38;;;;;;;13.17;6.07;;;;;;;-3.40;100.00;98832.28;1615156;88;21053;-69
2022/01/30 06:59:24;;;;;;;12.33;5.33;;;;;;;-3.28;100.00;98834.03;1614936;88;21056;-69
2022/01/30 07:02:11;;;;;;;12.53;6.37;;;;;;;-3.18;100.00;98817.02;1615126;88;21025;-70
2022/01/30 07:04:57;;;;;;;13.27;6.77;;;;;;;-3.10;100.00;98819.09;1614678;88;21049;-67
2022/01/30 07:07:36;;;;;;;15.50;5.97;;;;;;;-3.07;100.00;98822.83;1611048;89;21054;-67
2022/01/30 07:10:06;;;;;;;9.40;5.43;;;;;;;-3.02;100.00;98818.53;1614379;89;21025;-66
2022/01/30 07:12:33;;;;;;;9.27;4.73;;;;;;;-2.96;100.00;98826.83;1592595;89;20966;-68
2022/01/30 07:15:00;;;;;;;9.03;5.00;;;;;;;-2.93;100.00;98823.12;1607172;89;21046;-68
2022/01/30 07:17:27;;;;;;;9.93;5.43;;;;;;;-2.92;100.00;98829.63;1607105;85;21034;-68
2022/01/30 07:19:54;;;;;;;11.10;5.80;;;;;;;-2.90;100.00;98835.64;1680932;85;21105;-68
2022/01/30 07:22:21;;;;;;;11.83;5.20;;;;;;;-2.87;100.00;98838.06;1681466;85;21049;-69
2022/01/30 07:24:48;;;;;;;9.47;5.30;;;;;;;-2.80;100.00;98833.13;1607663;86;21096;-68
2022/01/30 07:27:15;;;;;;;11.40;5.70;;;;;;;-2.76;100.00;98826.67;1680884;85;20998;-69
2022/01/30 07:29:41;;;;;;;13.57;6.37;;;;;;;-2.75;100.00;98826.18;1681406;85;21014;-68
2022/01/30 07:32:08;;;;;;;10.87;5.07;;;;;;;-2.76;100.00;98833.28;1681263;85;21050;-68
2022/01/30 07:34:35;;;;;;;11.93;6.07;;;;;;;-2.72;100.00;98829.44;1681183;85;21073;-69
2022/01/30 07:37:04;;;;;;;9.83;5.03;;;;;;;-2.66;100.00;98824.16;1622289;87;21092;-69
2022/01/30 07:39:31;;;;;;;10.57;5.40;;;;;;;-2.64;100.00;98828.01;1711350;82;21331;-69
2022/01/30 07:42:00;;;;;;;10.23;5.30;;;;;;;-2.61;100.00;98814.55;1706590;83;21045;-69
2022/01/30 07:44:29;;;;;;;10.90;5.73;;;;;;;-2.55;100.00;98819.36;1714986;84;21495;-70
2022/01/30 07:46:56;;;;;;;11.70;5.27;;;;;;;-2.57;100.00;98822.61;1705859;84;21058;-69
2022/01/30 07:49:23;;;;;;;11.80;6.00;;;;;;;-2.59;100.00;98823.20;1716498;84;21059;-69
2022/01/30 07:51:50;;;;;;;11.67;5.90;;;;;;;-2.51;100.00;98820.34;1705754;84;21015;-69
2022/01/30 07:54:17;;;;;;;10.93;5.57;;;;;;;-2.43;100.00;98809.15;1681014;83;21050;-68
2022/01/30 07:56:44;;;;;;;12.07;5.83;;;;;;;-2.37;100.00;98814.48;1707191;83;21005;-69
2022/01/30 07:59:11;;;;;;;10.13;5.37;;;;;;;-2.34;100.00;98817.72;1716461;84;20976;-68
2022/01/30 08:01:38;;;;;;;14.63;6.17;;;;;;;-2.29;100.00;98820.83;1705760;84;21082;-69
2022/01/30 08:04:08;;;;;;;11.93;5.43;;;;;;;-2.25;100.00;98817.46;1706068;84;21479;-69
2022/01/30 08:06:37;;;;;;;13.87;5.57;;;;;;;-2.19;100.00;98815.67;1726644;83;21116;-68
2022/01/30 08:09:04;;;;;;;12.77;5.93;;;;;;;-2.18;100.00;98813.86;1707187;84;21013;-67
2022/01/30 08:11:35;;;;;;;9.77;5.30;;;;;;;-2.18;100.00;98813.40;1720474;83;21026;-71
2022/01/30 08:14:02;;;;;;;15.93;6.50;;;;;;;-2.14;100.00;98811.35;1718480;83;21050;-69
2022/01/30 08:16:29;;;;;;;12.57;5.97;;;;;;;-2.12;100.00;98802.80;1718704;83;21487;-68
2022/01/30 08:18:56;;;;;;;12.43;5.57;;;;;;;-2.10;100.00;98800.87;1737185;83;21070;-68
2022/01/30 08:21:23;;;;;;;13.70;5.70;;;;;;;-2.13;100.00;98797.13;1737619;83;21011;-71
2022/01/30 08:23:51;;;;;;;13.33;5.67;;;;;;;-2.12;100.00;98793.04;1718795;83;21019;-71
2022/01/30 08:26:18;;;;;;;12.20;5.50;;;;;;;-2.07;100.00;98794.47;1737307;82;21535;-71
2022/01/30 08:28:45;;;;;;;10.97;5.27;;;;;;;-2.04;100.00;98771.72;1737552;83;21041;-69
2022/01/30 08:31:12;;;;;;;12.27;6.10;;;;;;;-2.05;100.00;98766.91;1737367;83;21074;-71
2022/01/30 08:33:39;;;;;;;11.13;5.27;;;;;;;-2.03;100.00;98761.50;1718957;83;21007;-70
2022/01/30 08:36:06;;;;;;;12.63;5.83;;;;;;;-2.00;100.00;98752.82;1730645;83;20983;-70
2022/01/30 08:38:33;;;;;;;11.27;5.43;;;;;;;-1.97;100.00;98759.17;1706466;83;21051;-69
2022/01/30 08:41:00;;;;;;;10.70;5.30;;;;;;;-1.93;100.00;98738.58;1719341;83;21008;-69
2022/01/30 08:43:29;;;;;;;10.13;5.13;;;;;;;-1.84;100.00;98725.94;1718870;83;21042;-70
2022/01/30 08:45:56;;;;;;;10.87;5.47;;;;;;;-1.78;100.00;98726.74;1718998;83;21098;-68
2022/01/30 08:48:23;;;;;;;9.87;4.83;;;;;;;-1.75;100.00;98716.39;1654440;85;21046;-69
2022/01/30 08:50:50;;;;;;;13.20;5.53;;;;;;;-1.68;100.00;98711.41;1713165;83;21002;-69
2022/01/30 08:53:17;;;;;;;8.50;4.60;;;;;;;-1.62;100.00;98689.72;1693715;84;21074;-70
2022/01/30 08:55:45;;;;;;;10.03;4.63;;;;;;;-1.53;100.00;98703.03;1704049;83;21094;-69
2022/01/30 08:58:13;;;;;;;8.07;4.00;;;;;;;-1.40;100.00;98678.16;1696456;84;21022;-70
2022/01/30 09:00:42;;;;;;;8.13;4.40;;;;;;;-1.28;100.00;98667.84;1716177;82;21039;-69
2022/01/30 09:03:10;;;;;;;8.03;4.20;;;;;;;-1.20;100.00;98666.72;1713954;84;21507;-69
2022/01/30 09:05:37;;;;;;;7.07;4.20;;;;;;;-1.11;100.00;98647.02;1713827;84;20986;-69
2022/01/30 09:08:05;;;;;;;8.97;4.33;;;;;;;-1.13;100.00;98645.83;1683253;85;21086;-69
2022/01/30 09:10:35;;;;;;;7.90;4.30;;;;;;;-1.14;100.00;98645.45;1641599;86;21061;-69
2022/01/30 09:13:03;;;;;;;7.33;4.20;;;;;;;-1.13;100.00;98639.20;1650297;86;21052;-68
2022/01/30 09:15:37;;;;;;;12.47;4.43;;;;;;;-1.09;100.00;98631.81;1639480;86;21072;-69
2022/01/30 09:18:07;;;;;;;10.77;4.50;;;;;;;-1.08;100.00;98622.40;1639180;86;21549;-69
2022/01/30 09:20:29;;;;;;;9.27;4.50;;;;;;;-1.06;100.00;98626.22;1638366;86;21104;-69
2022/01/30 09:22:57;;;;;;;9.47;4.30;;;;;;;-0.97;100.00;98605.55;1712414;83;21041;-68
2022/01/30 09:25:23;;;;;;;10.87;4.20;;;;;;;-0.89;100.00;98600.89;1712049;84;21474;-69
2022/01/30 09:27:50;;;;;;;8.87;4.30;;;;;;;-0.83;100.00;98593.74;1692082;84;21506;-68
2022/01/30 09:30:18;;;;;;;9.00;4.47;;;;;;;-0.81;100.00;98590.46;1691980;84;20994;-68
2022/01/30 09:32:45;;;;;;;7.63;3.93;;;;;;;-0.75;100.00;98585.09;1712074;83;21033;-69
2022/01/30 09:35:12;;;;;;;8.40;4.03;;;;;;;-0.71;100.00;98582.52;1712094;83;21474;-69
2022/01/30 09:37:40;;;;;;;7.40;4.10;;;;;;;-0.72;100.00;98579.03;1715941;84;21547;-68
2022/01/30 09:40:09;;;;;;;7.70;4.30;;;;;;;-0.68;100.00;98580.92;1723505;83;21026;-69
2022/01/30 09:42:36;;;;;;;9.87;4.47;;;;;;;-0.63;100.00;98568.92;1726735;83;21495;-69
2022/01/30 09:45:05;;;;;;;7.00;3.93;;;;;;;-0.55;100.00;98570.05;1726769;82;20990;-69
2022/01/30 09:47:34;;;;;;;9.23;4.43;;;;;;;-0.59;100.00;98548.25;1706587;83;21057;-68
2022/01/30 09:50:00;;;;;;;7.57;4.30;;;;;;;-0.60;100.00;98552.72;1706295;84;21432;-69
2022/01/30 09:52:27;;;;;;;8.77;4.40;;;;;;;-0.57;100.00;98559.56;1716127;84;20992;-68
2022/01/30 09:54:54;;;;;;;10.80;4.40;;;;;;;-0.56;100.00;98549.80;1716549;84;21031;-67
2022/01/30 09:57:22;;;;;;;6.00;3.77;;;;;;;-0.60;100.00;98543.43;1714222;83;21081;-68
2022/01/30 09:59:48;;;;;;;8.00;4.37;;;;;;;-0.62;100.00;98541.41;1706776;83;21498;-68
2022/01/30 10:02:16;;;;;;;8.80;4.20;;;;;;;-0.61;100.00;98527.14;1715402;84;21062;-68
2022/01/30 10:04:43;;;;;;;6.73;4.30;;;;;;;-0.59;100.00;98523.02;1726637;83;21034;-69
2022/01/30 10:07:13;;;;;;;5.93;3.90;;;;;;;-0.53;100.00;98517.17;1726738;83;20987;-69
2022/01/30 10:09:44;;;;;;;9.90;4.70;;;;;;;-0.49;100.00;98517.24;1672550;85;21025;-69
2022/01/30 10:12:19;;;;;;;7.60;4.47;;;;;;;-0.47;100.00;98511.30;1704458;83;21523;-69
2022/01/30 10:15:05;;;;;;;10.23;4.90;;;;;;;-0.48;100.00;98500.34;1721339;83;21057;-68
2022/01/30 10:17:46;;;;;;;9.53;4.70;;;;;;;-0.45;100.00;98497.39;1700315;83;21069;-69
2022/01/30 10:20:17;;;;;;;9.73;4.90;;;;;;;-0.36;100.00;98494.89;1718040;83;21029;-68
2022/01/30 10:22:51;;;;;;;10.67;4.87;;;;;;;-0.36;100.00;98475.80;1700717;83;21022;-68
2022/01/30 10:25:25;;;;;;;11.17;4.70;;;;;;;-0.35;100.00;98467.33;1700373;83;21010;-69
2022/01/30 10:28:09;;;;;;;8.80;4.50;;;;;;;-0.30;100.00;98454.47;1700016;83;21042;-69
2022/01/30 10:30:50;;;;;;;8.23;4.53;;;;;;;-0.22;100.00;98451.46;1700586;83;21026;-70
2022/01/30 10:33:19;;;;;;;6.40;4.17;;;;;;;-0.17;100.00;98439.09;1720086;83;21090;-70
2022/01/30 10:35:59;;;;;;;7.77;4.20;;;;;;;-0.15;100.00;98431.81;1693238;84;21048;-69
2022/01/30 10:38:37;;;;;;;9.33;5.03;;;;;;;-0.11;100.00;98431.87;1711068;84;21083;-68
2022/01/30 10:41:22;;;;;;;9.90;4.40;;;;;;;-0.09;100.00;98436.58;1672040;85;21079;-67
2022/01/30 10:44:04;;;;;;;6.87;4.43;;;;;;;-0.07;100.00;98436.41;1695741;84;21001;-68
2022/01/30 10:46:44;;;;;;;8.98;4.80;;;;;;;-0.07;100.00;98427.11;1695829;84;21107;-69
2022/01/30 10:49:13;;;;;;;8.80;4.50;;;;;;;-0.07;100.00;98422.66;1695592;85;21083;-69
2022/01/30 10:51:41;;;;;;;8.70;4.67;;;;;;;-0.05;100.00;98415.87;1695955;85;21047;-70
2022/01/30 10:54:12;;;;;;;10.83;4.90;;;;;;;-0.05;100.00;98410.56;1670782;85;21047;-68
2022/01/30 10:56:40;;;;;;;11.20;5.00;;;;;;;0.00;100.00;98402.99;1573821;90;21543;-69
2022/01/30 10:59:16;;;;;;;8.30;4.63;;;;;;;0.01;100.00;98407.31;1554196;92;21056;-71
2022/01/30 11:01:48;;;;;;;11.43;5.57;;;;;;;0.02;100.00;98401.50;1583778;89;21035;-68
2022/01/30 11:04:29;;;;;;;9.83;5.03;;;;;;;0.03;100.00;98396.04;1603882;89;21764;-69
2022/01/30 11:07:00;;;;;;;12.47;5.73;;;;;;;0.04;100.00;98388.42;1538441;92;21103;-69
2022/01/30 11:09:35;;;;;;;9.57;5.17;;;;;;;0.07;100.00;98393.46;1575317;89;21607;-68
2022/01/30 11:12:06;;;;;;;10.83;5.60;;;;;;;0.08;100.00;98393.79;1609973;89;21059;-69
2022/01/30 11:14:38;;;;;;;7.50;4.77;;;;;;;0.09;100.00;98380.00;1539679;92;21061;-69
2022/01/30 11:17:07;;;;;;;9.00;5.23;;;;;;;0.07;100.00;98374.86;1578499;89;21086;-69
2022/01/30 11:19:39;;;;;;;8.90;5.07;;;;;;;0.08;100.00;98371.70;1579339;90;21810;-69
2022/01/30 11:22:15;;;;;;;11.50;5.47;;;;;;;0.08;100.00;98392.46;1589995;89;21091;-67
2022/01/30 11:24:52;;;;;;;10.67;5.60;;;;;;;0.09;100.00;98364.05;1589745;89;21074;-70
2022/01/30 11:27:22;;;;;;;10.40;5.33;;;;;;;0.10;100.00;98356.44;1589851;89;21024;-69
2022/01/30 11:29:50;;;;;;;8.33;5.10;;;;;;;0.11;100.00;98340.85;1589811;89;21158;-69
2022/01/30 11:32:20;;;;;;;7.40;4.63;;;;;;;0.13;100.00;98332.23;1610732;89;21067;-69
2022/01/30 11:34:47;;;;;;;8.57;5.03;;;;;;;0.11;100.00;98327.06;1565544;92;21527;-68
2022/01/30 11:37:16;;;;;;;10.67;4.97;;;;;;;0.12;100.00;98322.57;1541433;92;21100;-69
2022/01/30 11:39:48;;;;;;;14.67;5.60;;;;;;;0.13;100.00;98305.66;1516231;93;21116;-69
2022/01/30 11:42:21;;;;;;;10.33;5.10;;;;;;;0.13;100.00;98301.67;1539244;93;21211;-69
2022/01/30 11:44:48;;;;;;;;;;;;;;;0.16;100.00;98286.73;1541543;93;21660;-69
2022/01/30 11:47:17;;;;;;;10.70;5.37;;;;;;;0.18;100.00;98288.27;1539367;93;20169;-69
2022/01/30 11:49:49;;;;;;;10.37;5.27;;;;;;;0.21;100.00;98280.48;1539288;93;21044;-70
2022/01/30 11:52:17;;;;;;;10.67;5.53;;;;;;;0.23;100.00;98276.34;1487411;92;21144;-70
2022/01/30 11:54:49;;;;;;;10.47;5.33;;;;;;;0.24;100.00;98274.05;1530311;93;21866;-68
2022/01/30 11:57:32;;;;;;;11.07;5.43;;;;;;;0.25;100.00;98265.07;1499216;94;21152;-70
2022/01/30 12:00:03;;;;;;;9.55;5.45;;;;;;;0.24;100.00;98269.56;1518972;94;21053;-71
2022/01/30 12:02:36;;;;;;;12.53;5.93;;;;;;;0.23;100.00;98278.54;1516463;94;21112;-69
2022/01/30 12:05:09;;;;;;;12.70;5.57;;;;;;;0.22;100.00;98276.85;1499870;94;21104;-69
2022/01/30 12:07:47;;;;;;;12.85;6.47;;;;;;;0.20;100.00;98274.02;1518877;94;21108;-70
2022/01/30 12:10:25;;;;;;;13.60;7.00;;;;;;;0.15;100.00;98283.25;1500043;94;21128;-71
2022/01/30 12:12:55;;;;;;;13.00;6.10;;;;;;;0.09;100.00;98281.66;1500387;93;21678;-69
2022/01/30 12:15:46;;;;;;;14.17;6.90;;;;;;;0.07;100.00;98263.23;1506534;93;21071;-69
2022/01/30 12:18:19;;;;;;;14.23;7.30;;;;;;;0.05;100.00;98245.75;1526622;93;21685;-70
2022/01/30 12:21:09;;;;;;;13.88;5.28;;;;;;;0.06;100.00;98263.37;1508305;93;21640;-69
2022/01/30 12:23:37;;;;;;;12.57;6.13;;;;;;;0.04;100.00;98254.72;1545915;93;22308;-69
2022/01/30 12:26:14;;;;;;;13.37;6.13;;;;;;;0.04;100.00;98238.78;1526587;93;21668;-69
2022/01/30 12:28:52;;;;;;;13.13;6.50;;;;;;;0.03;100.00;98239.25;1545802;93;21642;-69
2022/01/30 12:31:38;;;;;;;11.67;6.27;;;;;;;0.02;100.00;98242.05;1556032;88;21079;-69
2022/01/30 12:34:06;;;;;;;11.67;5.60;;;;;;;0.01;100.00;98230.59;1624212;88;21127;-69
2022/01/30 12:36:37;;;;;;;9.73;5.40;;;;;;;0.01;100.00;98232.42;1632998;87;21128;-68
2022/01/30 12:39:09;;;;;;;11.27;6.17;;;;;;;-0.05;100.00;98238.67;1595820;89;21157;-69
2022/01/30 12:41:37;;;;;;;11.47;5.73;;;;;;;-0.06;100.00;98223.70;1487633;95;21149;-68
2022/01/30 12:44:14;;;;;;;12.23;5.77;;;;;;;-0.07;100.00;98227.83;1528229;93;21085;-69
2022/01/30 12:46:51;;;;;;;10.70;5.57;;;;;;;-0.06;100.00;98226.86;1530144;93;21049;-69